Time;durP1;ratioP1;P1;durP2;ratioP2;P2;SDS_P1;SDS_P2;PMS_P1;PMS_P2;Temp;Humidity;BMP_temperature;BMP_pressure;BME280_temperature;BME280_humidity;BME280_pressure;Samples;Min_cycle;Max_cycle;Signal;HPM_P1;HPM_P2
2023/08/09 00:01:34;;;;;;;0.00;0.00;;;13.60;81.50;;;;;;5006310;28;20046;-72
2023/08/09 00:04:00;;;;;;;0.00;0.00;;;13.60;81.40;;;;;;5004516;28;20572;-71
2023/08/09 00:06:26;;;;;;;0.00;0.00;;;13.60;81.40;;;;;;4987867;28;20051;-72
2023/08/09 00:08:51;;;;;;;0.00;0.00;;;13.60;81.40;;;;;;4977018;28;20050;-72
2023/08/09 00:11:17;;;;;;;0.00;0.00;;;13.50;81.40;;;;;;4992613;28;20089;-72
2023/08/09 00:13:42;;;;;;;0.00;0.00;;;13.50;81.30;;;;;;4992453;28;20058;-72
2023/08/09 00:16:09;;;;;;;0.00;0.00;;;13.50;81.60;;;;;;4992356;28;20049;-72
2023/08/09 00:18:35;;;;;;;0.00;0.00;;;13.50;81.60;;;;;;4992091;28;20098;-72
2023/08/09 00:21:01;;;;;;;0.00;0.00;;;13.50;81.70;;;;;;4996349;28;20187;-71
2023/08/09 00:23:28;;;;;;;0.00;0.00;;;13.40;81.60;;;;;;5010127;28;20196;-72
2023/08/09 00:25:54;;;;;;;0.10;0.10;;;13.40;81.40;;;;;;4995733;28;20491;-72
2023/08/09 00:28:20;;;;;;;0.00;0.00;;;13.50;81.40;;;;;;5003251;28;20114;-72
2023/08/09 00:30:46;;;;;;;0.00;0.00;;;13.50;81.20;;;;;;4996901;28;20063;-72
2023/08/09 00:33:12;;;;;;;0.00;0.00;;;13.40;81.30;;;;;;4996482;28;20522;-71
2023/08/09 00:35:37;;;;;;;0.00;0.00;;;13.40;81.20;;;;;;5009493;28;20109;-72
2023/08/09 00:38:03;;;;;;;0.00;0.00;;;13.40;81.30;;;;;;5002170;28;20074;-71
2023/08/09 00:40:29;;;;;;;0.00;0.00;;;13.40;81.10;;;;;;5009117;28;20124;-72
2023/08/09 00:42:54;;;;;;;0.00;0.00;;;13.40;81.10;;;;;;5000788;28;20053;-72
2023/08/09 00:45:20;;;;;;;0.00;0.00;;;13.30;80.90;;;;;;5009525;28;20046;-72
2023/08/09 00:47:45;;;;;;;0.00;0.00;;;13.20;81.10;;;;;;5009698;28;20624;-72
2023/08/09 00:50:11;;;;;;;0.00;0.00;;;13.20;81.20;;;;;;4994779;28;20042;-72
2023/08/09 00:52:37;;;;;;;0.00;0.00;;;13.20;81.10;;;;;;5003987;28;20046;-72
2023/08/09 00:55:06;;;;;;;0.00;0.00;;;13.20;81.20;;;;;;5011417;28;20415;-71
2023/08/09 00:57:32;;;;;;;0.00;0.00;;;13.20;81.20;;;;;;4998640;28;20064;-71
2023/08/09 00:59:58;;;;;;;0.00;0.00;;;13.20;81.00;;;;;;5006545;28;20507;-71
2023/08/09 01:02:24;;;;;;;0.00;0.00;;;13.30;81.00;;;;;;5008499;28;20838;-71
2023/08/09 01:04:50;;;;;;;0.08;0.08;;;13.20;80.90;;;;;;5006581;28;20054;-72
2023/08/09 01:07:27;;;;;;;0.00;0.00;;;13.20;80.90;;;;;;5010252;28;20053;-71
2023/08/09 01:10:15;;;;;;;0.00;0.00;;;13.10;80.80;;;;;;5001333;28;20089;-72
2023/08/09 01:12:44;;;;;;;0.00;0.00;;;13.10;80.80;;;;;;5004055;28;20042;-72
2023/08/09 01:15:12;;;;;;;0.00;0.00;;;13.10;80.80;;;;;;4999206;28;20515;-72
2023/08/09 01:17:40;;;;;;;0.00;0.00;;;13.10;80.80;;;;;;5005685;28;20060;-72
2023/08/09 01:20:11;;;;;;;0.00;0.00;;;13.10;80.90;;;;;;5008047;28;20064;-72
2023/08/09 01:22:40;;;;;;;0.00;0.00;;;13.10;80.60;;;;;;5008415;28;20081;-72
2023/08/09 01:25:08;;;;;;;0.00;0.00;;;13.10;80.70;;;;;;5004761;28;20046;-71
2023/08/09 01:27:34;;;;;;;0.00;0.00;;;13.00;80.60;;;;;;5010140;28;20133;-72
2023/08/09 01:30:00;;;;;;;0.00;0.00;;;13.10;80.70;;;;;;4994451;28;20108;-72
2023/08/09 01:32:28;;;;;;;0.40;0.40;;;13.00;80.70;;;;;;5002087;28;20042;-72
2023/08/09 01:34:54;;;;;;;0.00;0.00;;;13.10;80.70;;;;;;4993301;28;20471;-72
2023/08/09 01:37:38;;;;;;;0.00;0.00;;;13.10;80.60;;;;;;5000600;28;20510;-72
2023/08/09 01:40:10;;;;;;;0.00;0.00;;;13.10;80.50;;;;;;4993504;28;20893;-72
2023/08/09 01:42:39;;;;;;;;;;;13.10;80.60;;;;;;5009334;28;20053;-72
2023/08/09 01:45:08;;;;;;;0.00;0.00;;;13.10;80.70;;;;;;5006009;28;19933;-72
2023/08/09 01:47:38;;;;;;;0.00;0.00;;;13.10;80.70;;;;;;4999024;28;20049;-71
2023/08/09 01:50:06;;;;;;;0.00;0.00;;;13.10;80.90;;;;;;5008308;28;20696;-71
2023/08/09 01:52:31;;;;;;;0.00;0.00;;;13.00;80.80;;;;;;4991664;28;20113;-71
2023/08/09 01:54:57;;;;;;;0.00;0.00;;;13.10;80.80;;;;;;4999975;28;20161;-71
2023/08/09 01:57:23;;;;;;;0.00;0.00;;;13.10;80.70;;;;;;4996381;28;20046;-71
2023/08/09 01:59:49;;;;;;;0.00;0.00;;;13.00;80.70;;;;;;5002780;28;20053;-71
2023/08/09 02:02:15;;;;;;;0.00;0.00;;;13.00;80.70;;;;;;5006328;28;20040;-71
2023/08/09 02:04:40;;;;;;;0.00;0.00;;;13.00;80.70;;;;;;4991691;28;20042;-71
2023/08/09 02:07:06;;;;;;;0.00;0.00;;;13.10;80.60;;;;;;4992512;28;20053;-72
2023/08/09 02:09:31;;;;;;;0.00;0.00;;;13.10;80.70;;;;;;5008518;28;20042;-72
2023/08/09 02:11:57;;;;;;;0.00;0.00;;;13.00;80.70;;;;;;5001271;28;20042;-71
2023/08/09 02:14:23;;;;;;;0.00;0.00;;;13.10;80.80;;;;;;4989717;28;20054;-72
2023/08/09 02:16:49;;;;;;;0.00;0.00;;;13.00;80.90;;;;;;4997877;28;20565;-72
2023/08/09 02:19:14;;;;;;;0.00;0.00;;;13.10;80.80;;;;;;4990850;28;20062;-72
2023/08/09 02:21:42;;;;;;;0.00;0.00;;;13.00;81.00;;;;;;5003268;28;20104;-71
2023/08/09 02:24:08;;;;;;;0.00;0.00;;;12.90;81.00;;;;;;4998813;28;20060;-72
2023/08/09 02:26:34;;;;;;;0.00;0.00;;;12.90;81.20;;;;;;5007066;28;20042;-72
2023/08/09 02:29:03;;;;;;;0.00;0.00;;;12.90;81.20;;;;;;5006379;28;20042;-72
2023/08/09 02:31:29;;;;;;;0.00;0.00;;;12.90;81.10;;;;;;4996936;28;20046;-72
2023/08/09 02:33:57;;;;;;;0.03;0.03;;;12.90;81.00;;;;;;4995193;28;20057;-72
2023/08/09 02:36:24;;;;;;;0.00;0.00;;;12.90;81.10;;;;;;4991618;28;20068;-71
2023/08/09 02:38:49;;;;;;;0.00;0.00;;;12.80;81.20;;;;;;4995353;28;20050;-72
2023/08/09 02:41:15;;;;;;;0.00;0.00;;;12.80;81.40;;;;;;5003353;28;20050;-72
2023/08/09 02:43:40;;;;;;;0.00;0.00;;;12.80;81.30;;;;;;4996294;28;20040;-71
2023/08/09 02:46:06;;;;;;;0.00;0.00;;;12.80;81.20;;;;;;4989539;28;20875;-71
2023/08/09 02:48:32;;;;;;;0.00;0.00;;;12.80;81.30;;;;;;5002436;28;20509;-72
2023/08/09 02:50:57;;;;;;;0.00;0.00;;;12.80;81.20;;;;;;5004207;28;20056;-72
2023/08/09 02:53:36;;;;;;;4.63;1.85;;;12.90;81.20;;;;;;4996449;28;20388;-72
2023/08/09 02:56:02;;;;;;;0.00;0.00;;;12.80;81.50;;;;;;5005548;28;20042;-72
2023/08/09 02:58:27;;;;;;;0.00;0.00;;;12.80;81.60;;;;;;4991737;28;20092;-72
2023/08/09 03:00:53;;;;;;;0.00;0.00;;;12.80;81.40;;;;;;4997552;28;20136;-72
2023/08/09 03:03:18;;;;;;;0.00;0.00;;;12.70;81.30;;;;;;5003061;28;20050;-72
2023/08/09 03:05:44;;;;;;;0.00;0.00;;;12.80;81.40;;;;;;4990071;28;20054;-72
2023/08/09 03:08:10;;;;;;;0.00;0.00;;;12.80;81.30;;;;;;5006383;28;20046;-72
2023/08/09 03:10:36;;;;;;;0.00;0.00;;;12.80;81.30;;;;;;5004545;28;20061;-72
2023/08/09 03:13:02;;;;;;;0.00;0.00;;;12.70;81.30;;;;;;4994316;28;20077;-72
2023/08/09 03:15:27;;;;;;;0.00;0.00;;;12.70;81.30;;;;;;5000325;28;20042;-72
2023/08/09 03:17:53;;;;;;;0.00;0.00;;;12.70;81.30;;;;;;5005860;28;20057;-72
2023/08/09 03:20:19;;;;;;;0.00;0.00;;;12.70;81.10;;;;;;4999678;28;20514;-72
2023/08/09 03:22:45;;;;;;;0.00;0.00;;;12.60;81.00;;;;;;5001444;28;20070;-72
2023/08/09 03:25:12;;;;;;;0.00;0.00;;;12.70;81.00;;;;;;4989673;28;20486;-72
2023/08/09 03:27:38;;;;;;;0.00;0.00;;;12.80;81.00;;;;;;4989089;28;20081;-72
2023/08/09 03:30:08;;;;;;;0.00;0.00;;;12.80;81.00;;;;;;5002861;28;20053;-72
2023/08/09 03:32:35;;;;;;;0.00;0.00;;;12.70;80.90;;;;;;4996340;28;20145;-72
2023/08/09 03:35:01;;;;;;;0.00;0.00;;;12.70;80.80;;;;;;4994670;28;20054;-72
2023/08/09 03:37:27;;;;;;;0.00;0.00;;;12.80;80.80;;;;;;5000688;28;20765;-72
2023/08/09 03:39:52;;;;;;;0.00;0.00;;;12.70;80.80;;;;;;5004719;28;20042;-72
2023/08/09 03:42:18;;;;;;;0.00;0.00;;;12.70;80.80;;;;;;4994163;28;20117;-72
2023/08/09 03:44:44;;;;;;;0.00;0.00;;;12.70;80.90;;;;;;5003675;28;20092;-74
2023/08/09 03:47:09;;;;;;;0.22;0.22;;;12.70;81.00;;;;;;5007768;28;20046;-74
2023/08/09 03:49:35;;;;;;;0.00;0.00;;;12.70;81.10;;;;;;5011548;28;20693;-72
2023/08/09 03:52:00;;;;;;;0.00;0.00;;;12.70;81.10;;;;;;5012691;28;20046;-72
2023/08/09 03:54:26;;;;;;;0.00;0.00;;;12.60;81.10;;;;;;4998599;28;20557;-72
2023/08/09 03:56:52;;;;;;;0.00;0.00;;;12.60;81.10;;;;;;4999871;28;20057;-71
2023/08/09 03:59:17;;;;;;;0.00;0.00;;;12.60;81.10;;;;;;4994852;28;20093;-71
2023/08/09 04:01:43;;;;;;;0.00;0.00;;;12.70;81.10;;;;;;5004187;28;20061;-68
2023/08/09 04:04:08;;;;;;;0.10;0.10;;;12.60;81.10;;;;;;5001348;28;20037;-69
2023/08/09 04:06:34;;;;;;;0.00;0.00;;;12.60;81.30;;;;;;4997058;28;20054;-73
2023/08/09 04:09:00;;;;;;;0.00;0.00;;;12.60;81.40;;;;;;5028688;28;20132;-72
2023/08/09 04:11:25;;;;;;;0.00;0.00;;;12.60;81.40;;;;;;5025051;28;20073;-72
2023/08/09 04:13:51;;;;;;;0.00;0.00;;;12.60;81.40;;;;;;5011243;28;20523;-71
2023/08/09 04:16:16;;;;;;;0.00;0.00;;;12.60;81.50;;;;;;5014417;28;20531;-72
2023/08/09 04:18:42;;;;;;;0.00;0.00;;;12.60;81.50;;;;;;5020579;28;20049;-72
2023/08/09 04:21:07;;;;;;;0.00;0.00;;;12.60;81.50;;;;;;5031993;28;20057;-72
2023/08/09 04:23:33;;;;;;;0.00;0.00;;;12.60;81.60;;;;;;5031847;28;20056;-72
2023/08/09 04:26:00;;;;;;;0.00;0.00;;;12.60;81.60;;;;;;5032205;28;20052;-72
2023/08/09 04:28:26;;;;;;;0.00;0.00;;;12.60;81.60;;;;;;5013874;28;20055;-72
2023/08/09 04:30:52;;;;;;;0.00;0.00;;;12.60;82.00;;;;;;5031978;28;20132;-72
2023/08/09 04:33:18;;;;;;;0.00;0.00;;;12.60;82.00;;;;;;5014336;28;20049;-72
2023/08/09 04:35:44;;;;;;;0.00;0.00;;;12.60;82.20;;;;;;5031406;28;20045;-72
2023/08/09 04:38:09;;;;;;;0.00;0.00;;;12.60;82.00;;;;;;5030807;28;20076;-72
2023/08/09 04:40:36;;;;;;;0.00;0.00;;;12.60;82.10;;;;;;5031576;28;20050;-72
2023/08/09 04:43:03;;;;;;;0.00;0.00;;;12.60;82.40;;;;;;5032016;28;20053;-72
2023/08/09 04:45:29;;;;;;;0.00;0.00;;;12.60;82.50;;;;;;5031583;28;20047;-72
2023/08/09 04:47:57;;;;;;;0.00;0.00;;;12.60;82.40;;;;;;5031675;28;20052;-72
2023/08/09 04:50:23;;;;;;;0.00;0.00;;;12.60;82.60;;;;;;5031084;28;20053;-72
2023/08/09 04:52:49;;;;;;;0.00;0.00;;;12.60;82.60;;;;;;5031488;28;20414;-72
2023/08/09 04:55:16;;;;;;;0.00;0.00;;;12.60;83.10;;;;;;5030881;28;20056;-72
2023/08/09 04:57:42;;;;;;;0.00;0.00;;;12.70;83.00;;;;;;5031334;28;20057;-72
2023/08/09 05:00:10;;;;;;;0.00;0.00;;;12.70;82.80;;;;;;5024307;28;20038;-72
2023/08/09 05:02:36;;;;;;;0.00;0.00;;;12.70;82.90;;;;;;5010937;28;20053;-72
2023/08/09 05:05:09;;;;;;;0.00;0.00;;;12.80;83.00;;;;;;5011856;28;20034;-72
2023/08/09 05:07:35;;;;;;;0.00;0.00;;;12.80;82.90;;;;;;5011610;28;20050;-72
2023/08/09 05:10:02;;;;;;;0.00;0.00;;;12.90;83.00;;;;;;5011005;28;20517;-72
2023/08/09 05:12:28;;;;;;;0.00;0.00;;;12.90;82.90;;;;;;5011464;28;20061;-72
2023/08/09 05:14:54;;;;;;;0.00;0.00;;;13.00;82.80;;;;;;4999450;28;20042;-72
2023/08/09 05:17:20;;;;;;;0.00;0.00;;;13.00;82.80;;;;;;4995285;28;20524;-72
2023/08/09 05:19:45;;;;;;;0.00;0.00;;;13.10;83.10;;;;;;4991410;28;20050;-72
2023/08/09 05:22:11;;;;;;;0.00;0.00;;;13.10;82.90;;;;;;4995604;28;20046;-72
2023/08/09 05:24:36;;;;;;;0.00;0.00;;;13.10;83.00;;;;;;4991314;28;20050;-72
2023/08/09 05:27:02;;;;;;;0.00;0.00;;;13.20;83.10;;;;;;5008570;28;20040;-72
2023/08/09 05:29:28;;;;;;;0.00;0.00;;;13.20;83.30;;;;;;5007838;28;20143;-72
2023/08/09 05:31:53;;;;;;;0.00;0.00;;;13.30;83.10;;;;;;5007852;28;20049;-72
2023/08/09 05:34:19;;;;;;;0.00;0.00;;;13.30;83.30;;;;;;5002195;28;20525;-72
2023/08/09 05:36:45;;;;;;;0.00;0.00;;;13.40;83.10;;;;;;4991106;28;20317;-72
2023/08/09 05:39:12;;;;;;;0.00;0.00;;;13.50;83.20;;;;;;4991294;28;20727;-72
2023/08/09 05:41:38;;;;;;;0.00;0.00;;;13.50;83.10;;;;;;4991367;28;20058;-72
2023/08/09 05:44:04;;;;;;;0.00;0.00;;;13.60;83.10;;;;;;4997561;28;20112;-72
2023/08/09 05:46:29;;;;;;;0.00;0.00;;;13.60;83.20;;;;;;5001885;28;20046;-73
2023/08/09 05:48:55;;;;;;;0.00;0.00;;;13.70;83.10;;;;;;5004875;28;20074;-72
2023/08/09 05:51:21;;;;;;;0.00;0.00;;;13.70;83.10;;;;;;5004680;28;20054;-72
2023/08/09 05:53:46;;;;;;;0.00;0.00;;;13.80;83.20;;;;;;5009990;28;20053;-72
2023/08/09 05:56:13;;;;;;;0.00;0.00;;;13.90;83.20;;;;;;4990906;28;20046;-72
2023/08/09 05:58:38;;;;;;;0.00;0.00;;;13.90;83.20;;;;;;4995556;28;20446;-71
2023/08/09 06:01:07;;;;;;;0.00;0.00;;;14.00;83.10;;;;;;5003107;28;20049;-72
2023/08/09 06:03:39;;;;;;;0.00;0.00;;;14.10;83.00;;;;;;5010466;28;20053;-72
2023/08/09 06:06:06;;;;;;;0.00;0.00;;;14.10;83.00;;;;;;4990529;28;20475;-72
2023/08/09 06:08:33;;;;;;;0.00;0.00;;;14.20;83.00;;;;;;4992998;28;20494;-72
2023/08/09 06:10:58;;;;;;;0.00;0.00;;;14.30;82.90;;;;;;5009208;28;20057;-72
2023/08/09 06:13:24;;;;;;;0.00;0.00;;;14.40;82.80;;;;;;4999787;28;20602;-72
2023/08/09 06:15:50;;;;;;;0.00;0.00;;;14.50;83.20;;;;;;5004651;28;20129;-72
2023/08/09 06:18:16;;;;;;;0.00;0.00;;;14.50;83.30;;;;;;4989679;28;20061;-72
2023/08/09 06:20:42;;;;;;;0.00;0.00;;;14.60;83.30;;;;;;4997526;28;20519;-72
2023/08/09 06:23:08;;;;;;;0.10;0.10;;;14.70;83.50;;;;;;5009553;28;20056;-72
2023/08/09 06:25:34;;;;;;;0.00;0.00;;;14.80;83.20;;;;;;5005348;28;20037;-72
2023/08/09 06:28:00;;;;;;;0.00;0.00;;;14.90;83.60;;;;;;4997971;28;20141;-73
2023/08/09 06:30:26;;;;;;;0.00;0.00;;;14.90;83.60;;;;;;5005955;28;20120;-72
2023/08/09 06:32:51;;;;;;;0.00;0.00;;;15.00;83.20;;;;;;5008935;28;20049;-71
2023/08/09 06:35:18;;;;;;;0.00;0.00;;;15.10;83.00;;;;;;5009684;28;20495;-72
2023/08/09 06:37:45;;;;;;;0.00;0.00;;;15.20;82.70;;;;;;4998749;28;20050;-72
2023/08/09 06:40:11;;;;;;;0.00;0.00;;;15.30;82.60;;;;;;4989368;28;20093;-72
2023/08/09 06:42:36;;;;;;;0.00;0.00;;;15.30;82.40;;;;;;4990224;28;20078;-72
2023/08/09 06:45:03;;;;;;;0.00;0.00;;;15.50;82.50;;;;;;4989677;28;20046;-72
2023/08/09 06:47:29;;;;;;;1.23;1.13;;;15.50;82.40;;;;;;4999375;28;20049;-72
2023/08/09 06:49:54;;;;;;;0.20;0.20;;;15.60;82.10;;;;;;4993602;28;20046;-72
2023/08/09 06:52:20;;;;;;;0.00;0.00;;;15.60;81.70;;;;;;5000392;28;20050;-73
2023/08/09 06:54:45;;;;;;;0.00;0.00;;;15.70;80.80;;;;;;4990137;28;20070;-73
2023/08/09 06:57:11;;;;;;;0.00;0.00;;;15.80;80.80;;;;;;5002378;28;20056;-73
2023/08/09 06:59:36;;;;;;;0.00;0.00;;;15.90;80.80;;;;;;5009067;28;20054;-74
2023/08/09 07:02:02;;;;;;;0.00;0.00;;;16.00;80.50;;;;;;5007970;28;20057;-73
2023/08/09 07:04:27;;;;;;;0.05;0.05;;;16.00;80.20;;;;;;5007741;28;20537;-72
2023/08/09 07:06:53;;;;;;;0.00;0.00;;;16.10;80.00;;;;;;5007659;28;20049;-73
2023/08/09 07:09:19;;;;;;;0.10;0.10;;;16.10;79.80;;;;;;5017559;28;20041;-73
2023/08/09 07:11:46;;;;;;;0.00;0.00;;;16.20;79.30;;;;;;5027765;28;20053;-72
2023/08/09 07:14:12;;;;;;;0.47;0.47;;;16.30;78.30;;;;;;5026567;28;20524;-73
2023/08/09 07:16:37;;;;;;;0.00;0.00;;;16.40;78.50;;;;;;5027545;28;20080;-74
2023/08/09 07:19:03;;;;;;;0.63;0.55;;;16.40;76.90;;;;;;5011855;28;20058;-73
2023/08/09 07:21:28;;;;;;;0.00;0.00;;;16.50;77.40;;;;;;5012473;28;20489;-73
2023/08/09 07:23:54;;;;;;;0.00;0.00;;;16.50;76.70;;;;;;5012023;28;20049;-73
2023/08/09 07:26:20;;;;;;;0.00;0.00;;;16.60;76.80;;;;;;5013161;28;20625;-73
2023/08/09 07:28:45;;;;;;;0.00;0.00;;;16.60;76.60;;;;;;5013053;28;20053;-73
2023/08/09 07:31:22;;;;;;;0.00;0.00;;;16.60;76.90;;;;;;5012559;28;20050;-73
2023/08/09 07:33:48;;;;;;;0.00;0.00;;;16.70;77.00;;;;;;5012386;28;20056;-73
2023/08/09 07:36:14;;;;;;;0.00;0.00;;;16.80;77.70;;;;;;5013182;28;20411;-73
2023/08/09 07:38:39;;;;;;;0.00;0.00;;;16.90;78.00;;;;;;5012633;28;20049;-73
2023/08/09 07:41:05;;;;;;;0.00;0.00;;;16.90;75.90;;;;;;5012502;28;20512;-73
2023/08/09 07:43:31;;;;;;;0.00;0.00;;;17.00;74.20;;;;;;5012237;28;20052;-73
2023/08/09 07:45:56;;;;;;;0.00;0.00;;;17.00;73.40;;;;;;5012500;28;20125;-73
2023/08/09 07:48:22;;;;;;;0.00;0.00;;;17.00;71.90;;;;;;5012517;28;20139;-73
2023/08/09 07:50:48;;;;;;;0.00;0.00;;;17.00;71.60;;;;;;5010104;28;20034;-73
2023/08/09 07:53:14;;;;;;;0.00;0.00;;;17.10;71.70;;;;;;4999633;28;20529;-73
2023/08/09 07:55:39;;;;;;;0.00;0.00;;;17.20;72.00;;;;;;5011743;28;20049;-73
2023/08/09 07:58:06;;;;;;;0.00;0.00;;;17.20;71.20;;;;;;5011934;28;20045;-73
2023/08/09 08:00:33;;;;;;;0.00;0.00;;;17.30;71.70;;;;;;5011972;28;20128;-74
2023/08/09 08:02:59;;;;;;;0.00;0.00;;;17.40;70.60;;;;;;5011721;28;20042;-74
2023/08/09 08:05:25;;;;;;;0.00;0.00;;;17.40;69.80;;;;;;5011558;28;20050;-74
2023/08/09 08:07:50;;;;;;;0.00;0.00;;;17.40;68.90;;;;;;5011892;28;20418;-74
2023/08/09 08:10:16;;;;;;;0.10;0.10;;;17.40;68.60;;;;;;4996342;28;20038;-73
2023/08/09 08:12:48;;;;;;;0.00;0.00;;;17.40;68.00;;;;;;4991315;28;20042;-68
2023/08/09 08:15:14;;;;;;;0.00;0.00;;;17.50;67.30;;;;;;4974925;28;20046;-68
2023/08/09 08:17:40;;;;;;;0.00;0.00;;;17.50;69.40;;;;;;4974431;28;20648;-71
2023/08/09 08:20:10;;;;;;;0.00;0.00;;;17.70;69.00;;;;;;4991526;28;20129;-70
2023/08/09 08:22:35;;;;;;;0.00;0.00;;;17.80;67.90;;;;;;4991659;28;20143;-70
2023/08/09 08:25:01;;;;;;;0.00;0.00;;;17.80;66.00;;;;;;4991738;28;20551;-70
2023/08/09 08:27:27;;;;;;;0.00;0.00;;;17.90;64.70;;;;;;4991835;28;20046;-70
2023/08/09 08:29:55;;;;;;;0.00;0.00;;;18.00;65.90;;;;;;4991742;28;20054;-70
2023/08/09 08:32:20;;;;;;;0.00;0.00;;;18.00;65.90;;;;;;4996625;28;20049;-70
2023/08/09 08:34:47;;;;;;;0.05;0.05;;;18.10;66.30;;;;;;4996924;28;20046;-73
2023/08/09 08:37:13;;;;;;;0.00;0.00;;;18.10;64.80;;;;;;4998276;28;20050;-74
2023/08/09 08:39:38;;;;;;;0.00;0.00;;;18.10;65.70;;;;;;5000692;28;20045;-73
2023/08/09 08:42:04;;;;;;;0.15;0.15;;;18.10;66.20;;;;;;5009432;28;20050;-73
2023/08/09 08:44:30;;;;;;;0.00;0.00;;;18.10;65.10;;;;;;5004552;28;20050;-70
2023/08/09 08:46:58;;;;;;;0.00;0.00;;;18.10;66.30;;;;;;4998275;28;20038;-72
2023/08/09 08:49:24;;;;;;;0.10;0.10;;;18.20;66.10;;;;;;5010350;28;20054;-72
2023/08/09 08:51:55;;;;;;;0.00;0.00;;;18.20;66.40;;;;;;5009598;28;20050;-73
2023/08/09 08:54:22;;;;;;;0.00;0.00;;;18.10;65.80;;;;;;5010984;28;20089;-72
2023/08/09 08:56:48;;;;;;;0.00;0.00;;;18.10;65.90;;;;;;5009543;28;20546;-72
2023/08/09 08:59:15;;;;;;;0.00;0.00;;;18.10;65.60;;;;;;5012174;28;20129;-72
2023/08/09 09:01:42;;;;;;;0.10;0.10;;;18.10;65.40;;;;;;5010397;28;20093;-73
2023/08/09 09:04:08;;;;;;;0.00;0.00;;;18.10;64.10;;;;;;5010752;28;20185;-72
2023/08/09 09:06:35;;;;;;;0.00;0.00;;;18.10;64.20;;;;;;4996985;28;20058;-72
2023/08/09 09:09:08;;;;;;;0.00;0.00;;;18.30;65.30;;;;;;4992297;28;20046;-72
2023/08/09 09:11:34;;;;;;;0.00;0.00;;;18.50;64.30;;;;;;4992272;28;20052;-72
2023/08/09 09:14:00;;;;;;;0.03;0.03;;;18.50;65.10;;;;;;4992213;28;20081;-72
2023/08/09 09:16:26;;;;;;;0.00;0.00;;;18.50;64.60;;;;;;4996209;28;20084;-72
2023/08/09 09:18:51;;;;;;;0.00;0.00;;;18.50;63.40;;;;;;4991801;28;20157;-72
2023/08/09 09:21:18;;;;;;;1.35;0.85;;;18.60;64.40;;;;;;4992216;28;20056;-72
2023/08/09 09:23:44;;;;;;;0.00;0.00;;;18.60;64.60;;;;;;5009243;28;20046;-72
2023/08/09 09:26:15;;;;;;;3.63;0.47;;;18.50;63.00;;;;;;5011636;28;20495;-72
2023/08/09 09:28:45;;;;;;;0.00;0.00;;;18.60;62.20;;;;;;5009803;28;20046;-72
2023/08/09 09:31:13;;;;;;;0.10;0.10;;;18.60;63.20;;;;;;4998483;28;20038;-72
2023/08/09 09:33:44;;;;;;;0.00;0.00;;;18.60;64.70;;;;;;5006740;28;20041;-72
2023/08/09 09:36:11;;;;;;;0.30;0.13;;;18.70;65.40;;;;;;4996878;28;20458;-74
2023/08/09 09:38:38;;;;;;;0.00;0.00;;;18.80;64.70;;;;;;4990731;28;20081;-74
2023/08/09 09:41:05;;;;;;;0.00;0.00;;;18.80;63.30;;;;;;4973355;28;20050;-73
2023/08/09 09:43:32;;;;;;;0.00;0.00;;;18.80;63.50;;;;;;4992848;28;20472;-74
2023/08/09 09:45:58;;;;;;;0.00;0.00;;;18.90;62.50;;;;;;4997689;28;20116;-73
2023/08/09 09:48:25;;;;;;;0.00;0.00;;;18.90;63.10;;;;;;4990535;28;20077;-73
2023/08/09 09:50:51;;;;;;;0.28;0.28;;;19.00;64.40;;;;;;4989979;28;20562;-73
2023/08/09 09:53:18;;;;;;;0.00;0.00;;;19.00;63.80;;;;;;4990864;28;20137;-74
2023/08/09 09:55:45;;;;;;;0.20;0.20;;;19.10;64.20;;;;;;5007841;28;20164;-74
2023/08/09 09:58:12;;;;;;;0.00;0.00;;;19.20;63.80;;;;;;5009318;28;20147;-71
2023/08/09 10:00:43;;;;;;;0.15;0.15;;;19.10;62.70;;;;;;4989917;28;20124;-71
2023/08/09 10:03:09;;;;;;;0.00;0.00;;;19.10;63.10;;;;;;4999575;28;20060;-70
2023/08/09 10:05:40;;;;;;;0.00;0.00;;;19.10;63.70;;;;;;5009967;28;20069;-70
2023/08/09 10:08:09;;;;;;;0.00;0.00;;;19.10;62.60;;;;;;5000695;28;20050;-70
2023/08/09 10:10:36;;;;;;;0.08;0.08;;;19.10;62.90;;;;;;4989643;28;20050;-70
2023/08/09 10:13:04;;;;;;;0.00;0.00;;;19.10;60.50;;;;;;4997083;28;20569;-71
2023/08/09 10:15:35;;;;;;;0.00;0.00;;;19.10;59.50;;;;;;5009203;28;20096;-71
2023/08/09 10:18:23;;;;;;;0.00;0.00;;;19.10;60.50;;;;;;5009321;28;20061;-71
2023/08/09 10:20:52;;;;;;;0.00;0.00;;;19.10;61.50;;;;;;4996013;28;20054;-71
2023/08/09 10:23:26;;;;;;;0.00;0.00;;;19.20;60.50;;;;;;4987699;28;20058;-71
2023/08/09 10:25:54;;;;;;;0.00;0.00;;;19.20;59.80;;;;;;4988811;28;20101;-71
2023/08/09 10:28:43;;;;;;;0.00;0.00;;;19.20;61.20;;;;;;4999793;28;20046;-71
2023/08/09 10:31:09;;;;;;;4.38;1.00;;;19.20;58.90;;;;;;5008223;28;20134;-71
2023/08/09 10:33:35;;;;;;;0.00;0.00;;;19.30;60.60;;;;;;5007909;28;20507;-70
2023/08/09 10:36:00;;;;;;;0.00;0.00;;;19.30;59.80;;;;;;5003574;28;20070;-71
2023/08/09 10:38:32;;;;;;;0.00;0.00;;;19.20;61.00;;;;;;4992926;28;20046;-71
2023/08/09 10:40:59;;;;;;;0.20;0.10;;;19.20;61.60;;;;;;4974745;28;20042;-71
2023/08/09 10:43:29;;;;;;;0.00;0.00;;;19.30;62.10;;;;;;5007747;28;20042;-71
2023/08/09 10:45:56;;;;;;;0.00;0.00;;;19.40;62.10;;;;;;4999732;28;20050;-71
2023/08/09 10:48:23;;;;;;;0.00;0.00;;;19.40;63.40;;;;;;4995580;28;20050;-71
2023/08/09 10:51:07;;;;;;;0.00;0.00;;;19.50;63.30;;;;;;4996395;28;20550;-71
2023/08/09 10:53:49;;;;;;;0.00;0.00;;;19.50;64.20;;;;;;4992966;28;20071;-71
2023/08/09 10:56:47;;;;;;;0.00;0.00;;;19.60;64.70;;;;;;5006874;28;20042;-72
2023/08/09 10:59:21;;;;;;;0.00;0.00;;;19.60;63.50;;;;;;4977180;28;20153;-71
2023/08/09 11:01:47;;;;;;;0.00;0.00;;;19.70;63.50;;;;;;4989346;28;20038;-71
2023/08/09 11:04:14;;;;;;;0.00;0.00;;;19.60;63.30;;;;;;4988980;28;20054;-71
2023/08/09 11:06:45;;;;;;;0.00;0.00;;;19.60;59.40;;;;;;5002932;28;20049;-72
2023/08/09 11:09:19;;;;;;;0.00;0.00;;;19.60;61.20;;;;;;5007327;28;20050;-72
2023/08/09 11:11:46;;;;;;;0.00;0.00;;;19.50;61.80;;;;;;5000928;28;20038;-72
2023/08/09 11:14:14;;;;;;;0.00;0.00;;;19.40;62.90;;;;;;5008899;28;20045;-72
2023/08/09 11:16:40;;;;;;;0.00;0.00;;;19.30;63.50;;;;;;5006872;28;20057;-71
2023/08/09 11:19:09;;;;;;;0.00;0.00;;;19.30;64.40;;;;;;5006537;28;20108;-71
2023/08/09 11:21:51;;;;;;;0.00;0.00;;;19.20;66.10;;;;;;4989309;28;20216;-71
2023/08/09 11:24:19;;;;;;;0.00;0.00;;;19.00;67.80;;;;;;4991668;28;20081;-71
2023/08/09 11:26:58;;;;;;;0.00;0.00;;;19.00;68.60;;;;;;5004510;28;20042;-71
2023/08/09 11:29:25;;;;;;;0.38;0.30;;;19.10;68.50;;;;;;4988513;28;20053;-71
2023/08/09 11:31:54;;;;;;;0.00;0.00;;;19.20;69.00;;;;;;5005162;28;20038;-70
2023/08/09 11:34:26;;;;;;;0.00;0.00;;;19.30;68.60;;;;;;5008670;28;20052;-70
2023/08/09 11:36:58;;;;;;;0.10;0.10;;;19.40;69.50;;;;;;5006640;28;20814;-70
2023/08/09 11:39:29;;;;;;;0.00;0.00;;;19.30;69.90;;;;;;5007854;28;20113;-71
2023/08/09 11:42:01;;;;;;;0.00;0.00;;;19.30;70.80;;;;;;5008598;28;20482;-70
2023/08/09 11:44:31;;;;;;;0.25;0.25;;;19.50;69.30;;;;;;5008181;28;20042;-71
2023/08/09 11:47:08;;;;;;;0.43;0.43;;;19.50;68.30;;;;;;5006938;28;20447;-70
2023/08/09 11:49:43;;;;;;;0.00;0.00;;;19.60;68.90;;;;;;5007878;28;20045;-70
2023/08/09 11:52:16;;;;;;;0.00;0.00;;;19.50;68.40;;;;;;5007872;28;20548;-70
2023/08/09 11:54:42;;;;;;;0.00;0.00;;;19.40;65.90;;;;;;4998408;28;20124;-69
2023/08/09 11:57:08;;;;;;;0.00;0.00;;;19.30;67.60;;;;;;4994844;28;20053;-69
2023/08/09 11:59:38;;;;;;;0.10;0.10;;;19.20;64.90;;;;;;5003591;28;20065;-70
2023/08/09 12:02:06;;;;;;;0.00;0.00;;;19.30;66.30;;;;;;4996646;28;20555;-67
2023/08/09 12:04:32;;;;;;;2.20;0.93;;;19.50;66.00;;;;;;4990731;28;20046;-68
2023/08/09 12:07:00;;;;;;;0.00;0.00;;;19.60;65.50;;;;;;5004261;28;20052;-68
2023/08/09 12:09:39;;;;;;;0.28;0.28;;;19.70;65.40;;;;;;5012246;28;20057;-68
2023/08/09 12:12:10;;;;;;;0.00;0.00;;;19.60;65.20;;;;;;5000016;28;20042;-69
2023/08/09 12:14:47;;;;;;;0.00;0.00;;;19.60;63.80;;;;;;5001670;28;20062;-70
2023/08/09 12:17:29;;;;;;;0.00;0.00;;;19.60;61.20;;;;;;4991912;28;20099;-69
2023/08/09 12:19:57;;;;;;;0.00;0.00;;;19.60;59.60;;;;;;5009834;28;20125;-68
2023/08/09 12:22:25;;;;;;;0.13;0.13;;;19.70;61.70;;;;;;5010310;28;20053;-69
2023/08/09 12:24:51;;;;;;;0.00;0.00;;;19.80;59.50;;;;;;5000583;28;20061;-69
2023/08/09 12:27:18;;;;;;;0.00;0.00;;;19.90;59.70;;;;;;4995728;28;20152;-70
2023/08/09 12:29:43;;;;;;;0.10;0.10;;;20.00;59.00;;;;;;4994179;28;20124;-70
2023/08/09 12:32:09;;;;;;;0.00;0.00;;;20.00;60.80;;;;;;5001648;28;20049;-69
2023/08/09 12:34:35;;;;;;;1.08;0.45;;;20.10;61.10;;;;;;5009852;28;20080;-69
2023/08/09 12:37:00;;;;;;;0.00;0.00;;;20.20;58.90;;;;;;5001799;28;20050;-70
2023/08/09 12:39:27;;;;;;;0.22;0.22;;;20.20;59.50;;;;;;5010581;28;20057;-70
2023/08/09 12:41:53;;;;;;;0.00;0.00;;;20.30;63.70;;;;;;5008131;28;20088;-70
2023/08/09 12:44:18;;;;;;;0.00;0.00;;;20.50;61.70;;;;;;4993598;28;20051;-70
2023/08/09 12:46:44;;;;;;;0.10;0.10;;;20.50;62.00;;;;;;4995673;28;20045;-70
2023/08/09 12:49:10;;;;;;;0.00;0.00;;;20.40;62.80;;;;;;5007912;28;20050;-70